Time;durP1;ratioP1;P1;durP2;ratioP2;P2;SDS_P1;SDS_P2;PMS_P1;PMS_P2;Temp;Humidity;BMP_temperature;BMP_pressure;BME280_temperature;BME280_humidity;BME280_pressure;Samples;Min_cycle;Max_cycle;Signal;HPM_P1;HPM_P2
2021/11/07 00:04:26;;;;;;;56.25;33.28;;;;;;;14.04;100.00;101569.25;5033483;28;20572;-72
2021/11/07 00:07:08;;;;;;;52.25;30.98;;;;;;;14.02;100.00;101568.34;5032245;28;20175;-74
2021/11/07 00:09:50;;;;;;;58.45;33.35;;;;;;;13.91;100.00;101550.59;5031589;28;20483;-71
2021/11/07 00:12:22;;;;;;;46.40;31.42;;;;;;;13.95;100.00;101562.00;5033107;28;20495;-71
2021/11/07 00:14:50;;;;;;;48.38;31.75;;;;;;;14.06;100.00;101572.81;5032959;28;20530;-70
2021/11/07 00:17:18;;;;;;;57.05;30.52;;;;;;;13.96;100.00;101555.09;5033319;28;20479;-70
2021/11/07 00:19:47;;;;;;;64.35;34.75;;;;;;;14.09;100.00;101570.31;5033097;28;20033;-72
2021/11/07 00:24:51;;;;;;;63.83;32.35;;;;;;;14.19;100.00;101563.78;5028642;28;20049;-70
2021/11/07 00:27:26;;;;;;;60.15;32.67;;;;;;;14.10;100.00;101540.06;5017646;28;20393;-71
2021/11/07 00:38:14;;;;;;;63.80;33.05;;;;;;;13.94;100.00;101517.78;4951555;29;20082;-71
2021/11/07 00:43:41;;;;;;;43.80;26.98;;;;;;;13.79;100.00;101500.78;4932131;29;20091;-70
2021/11/07 01:01:29;;;;;;;75.13;37.42;;;;;;;14.20;100.00;101540.47;4908626;29;20055;-70
2021/11/07 01:03:58;;;;;;;60.80;30.88;;;;;;;13.68;100.00;101461.44;4913141;29;20593;-69
2021/11/07 01:06:24;;;;;;;58.30;31.98;;;;;;;14.08;100.00;101508.81;4911534;29;20036;-69
2021/11/07 01:08:49;;;;;;;62.40;30.85;;;;;;;13.82;100.00;101458.47;4913368;29;20126;-72
2021/11/07 01:11:15;;;;;;;51.80;28.20;;;;;;;14.24;100.00;101534.59;4908934;29;20064;-73
2021/11/07 01:13:41;;;;;;;50.65;28.02;;;;;;;14.21;100.00;101542.25;4941401;28;20031;-71
2021/11/07 01:16:07;;;;;;;55.20;27.75;;;;;;;14.06;100.00;101510.50;4970291;28;20472;-69
2021/11/07 01:18:33;;;;;;;47.50;28.63;;;;;;;14.13;100.00;101529.78;4969625;28;20041;-71
2021/11/07 01:20:59;;;;;;;59.20;30.52;;;;;;;14.00;100.00;101523.22;4946975;28;20454;-70
2021/11/07 01:23:41;;;;;;;63.75;30.85;;;;;;;14.03;100.00;101537.22;4945163;28;20042;-68
2021/11/07 01:26:16;;;;;;;62.53;32.00;;;;;;;13.92;100.00;101512.56;4993671;28;20064;-70
2021/11/07 01:28:51;;;;;;;54.47;29.42;;;;;;;14.12;100.00;101528.00;5016729;28;20071;-70
2021/11/07 01:31:16;;;;;;;60.30;29.33;;;;;;;14.02;100.00;101506.03;5023194;28;20033;-71
2021/11/07 01:33:43;;;;;;;54.72;27.38;;;;;;;14.18;100.00;101528.25;5031850;28;20466;-71
2021/11/07 01:36:33;;;;;;;43.95;25.65;;;;;;;13.63;100.00;101433.50;5031888;28;20048;-68
2021/11/07 01:44:25;;;;;;;48.28;26.35;;;;;;;14.23;100.00;101530.22;4951186;28;20550;-70
2021/11/07 01:46:53;;;;;;;59.97;26.35;;;;;;;14.12;100.00;101502.94;4943733;29;20043;-69
2021/11/07 01:49:23;;;;;;;36.72;24.50;;;;;;;14.16;100.00;101517.81;4935684;28;20040;-71
2021/11/07 01:51:56;;;;;;;36.72;23.83;;;;;;;13.63;100.00;101434.38;4933089;29;20527;-68
2021/11/07 01:54:27;;;;;;;40.95;24.25;;;;;;;13.91;100.00;101470.13;4934604;29;20024;-69
2021/11/07 01:56:53;;;;;;;34.00;22.83;;;;;;;14.03;100.00;101505.16;4932223;28;20445;-70
2021/11/07 01:59:19;;;;;;;32.63;23.50;;;;;;;13.87;100.00;101503.69;4934223;29;20049;-68
2021/11/07 02:01:51;;;;;;;39.10;24.55;;;;;;;13.88;100.00;101516.72;4933833;28;20033;-69
2021/11/07 02:04:16;;;;;;;38.90;25.00;;;;;;;13.90;100.00;101514.19;4934913;28;20031;-72
2021/11/07 02:06:41;;;;;;;38.35;25.73;;;;;;;13.93;100.00;101516.03;4933054;29;20783;-71
2021/11/07 02:09:07;;;;;;;44.38;25.15;;;;;;;13.85;100.00;101532.16;4932154;29;20614;-72
2021/11/07 02:11:33;;;;;;;44.30;24.58;;;;;;;13.85;100.00;101521.78;4931060;29;20051;-72
2021/11/07 02:13:59;;;;;;;37.10;25.13;;;;;;;13.90;100.00;101512.47;4932852;29;20071;-70
2021/11/07 02:16:25;;;;;;;47.72;26.33;;;;;;;13.81;100.00;101500.84;4945597;28;20054;-68
2021/11/07 02:18:50;;;;;;;45.97;25.42;;;;;;;13.55;100.00;101448.78;4993541;28;20559;-69
2021/11/07 02:21:16;;;;;;;48.75;26.17;;;;;;;13.97;100.00;101516.22;5031765;28;20430;-70
2021/11/07 02:23:42;;;;;;;42.92;26.63;;;;;;;13.51;100.00;101429.59;5031798;28;20029;-69
2021/11/07 02:26:09;;;;;;;41.97;23.50;;;;;;;13.99;100.00;101513.66;5031557;28;20055;-71
2021/11/07 02:28:42;;;;;;;43.67;25.50;;;;;;;14.01;100.00;101512.91;5031793;28;20036;-67
2021/11/07 02:31:09;;;;;;;50.88;26.27;;;;;;;14.00;100.00;101515.44;5013690;28;20076;-73
2021/11/07 02:33:35;;;;;;;58.53;27.02;;;;;;;13.52;100.00;101435.66;5030954;28;20124;-69
2021/11/07 02:36:10;;;;;;;56.97;27.33;;;;;;;14.01;100.00;101520.69;5031271;28;20017;-69
2021/11/07 02:38:37;;;;;;;47.78;24.67;;;;;;;13.86;100.00;101510.59;5031297;28;20036;-69
2021/11/07 02:41:04;;;;;;;52.22;24.05;;;;;;;13.95;100.00;101510.06;5026848;28;20104;-70
2021/11/07 02:43:37;;;;;;;52.13;26.58;;;;;;;13.89;100.00;101510.72;5031583;28;20029;-69
2021/11/07 02:46:03;;;;;;;44.67;26.30;;;;;;;13.75;100.00;101501.47;5021190;28;20108;-70
2021/11/07 02:48:28;;;;;;;49.28;25.23;;;;;;;13.78;100.00;101505.91;5031228;28;20032;-70
2021/11/07 02:50:54;;;;;;;43.13;27.38;;;;;;;13.89;100.00;101526.31;5031447;28;20101;-70
2021/11/07 02:53:19;;;;;;;35.30;24.15;;;;;;;13.88;100.00;101514.13;5031187;28;20075;-70
2021/11/07 02:55:45;;;;;;;38.05;24.17;;;;;;;13.62;100.00;101483.63;5031105;28;20026;-72
2021/11/07 02:58:10;;;;;;;32.47;22.23;;;;;;;13.36;100.00;101449.72;5031238;28;20025;-71
2021/11/07 03:00:36;;;;;;;32.72;22.65;;;;;;;13.61;100.00;101515.59;5031055;28;20026;-71
2021/11/07 03:03:01;;;;;;;32.50;22.92;;;;;;;13.56;100.00;101518.00;5031267;28;20029;-70
2021/11/07 03:05:31;;;;;;;43.40;25.75;;;;;;;13.44;100.00;101489.84;5030928;28;20025;-71
2021/11/07 03:07:57;;;;;;;38.38;24.92;;;;;;;13.37;100.00;101495.56;5031089;28;20029;-71
2021/11/07 03:10:25;;;;;;;43.22;26.60;;;;;;;13.33;100.00;101512.69;5013547;28;20030;-71
2021/11/07 03:13:10;;;;;;;44.50;27.42;;;;;;;13.18;100.00;101507.72;5031562;28;20056;-72
2021/11/07 03:15:36;;;;;;;43.45;27.58;;;;;;;13.25;100.00;101508.91;5035292;28;20029;-73
2021/11/07 03:18:03;;;;;;;56.22;31.48;;;;;;;13.08;100.00;101498.69;5000624;28;20213;-67
2021/11/07 03:20:29;;;;;;;47.35;29.45;;;;;;;12.93;100.00;101470.41;5035098;28;20030;-68
2021/11/07 03:22:54;;;;;;;45.53;27.20;;;;;;;13.25;100.00;101516.69;5035172;28;20040;-67
2021/11/07 03:25:21;;;;;;;39.30;26.42;;;;;;;13.19;100.00;101514.69;5034819;28;20081;-66
2021/11/07 03:27:46;;;;;;;45.78;27.33;;;;;;;12.27;100.00;101362.19;5034548;28;20396;-68
2021/11/07 03:33:09;;;;;;;40.40;27.23;;;;;;;12.95;100.00;101510.22;5034953;28;20032;-68
2021/11/07 03:35:34;;;;;;;38.65;24.85;;;;;;;12.48;100.00;101435.59;5034758;28;20033;-68
2021/11/07 03:38:00;;;;;;;38.15;25.38;;;;;;;12.71;100.00;101484.13;5034527;28;20484;-69
2021/11/07 03:40:27;;;;;;;36.47;24.08;;;;;;;12.35;100.00;101426.34;5034822;28;20084;-69
2021/11/07 03:42:52;;;;;;;38.25;26.05;;;;;;;12.84;100.00;101533.91;5034897;28;20033;-68
2021/11/07 03:45:19;;;;;;;38.53;26.38;;;;;;;12.84;100.00;101531.31;5034715;28;20075;-71
2021/11/07 03:47:45;;;;;;;37.45;26.45;;;;;;;12.75;100.00;101517.13;5035159;28;20026;-69
2021/11/07 03:50:11;;;;;;;37.20;25.30;;;;;;;12.77;100.00;101520.69;5034405;28;20028;-68
2021/11/07 03:52:37;;;;;;;39.60;25.83;;;;;;;12.84;100.00;101520.94;5034017;28;20030;-69
2021/11/07 03:55:04;;;;;;;38.35;25.35;;;;;;;12.87;100.00;101528.84;5035099;28;20481;-68
2021/11/07 03:57:29;;;;;;;35.00;24.52;;;;;;;12.76;100.00;101516.31;5034620;28;20037;-69
2021/11/07 03:59:55;;;;;;;38.42;24.23;;;;;;;12.70;100.00;101513.44;5034893;28;20411;-70
2021/11/07 04:02:20;;;;;;;39.20;25.15;;;;;;;12.66;100.00;101508.94;5034557;28;20388;-69
2021/11/07 04:04:46;;;;;;;35.20;24.38;;;;;;;12.30;100.00;101439.13;5034700;28;20029;-69
2021/11/07 04:07:11;;;;;;;35.67;23.98;;;;;;;12.78;100.00;101527.63;5034682;28;20037;-69
2021/11/07 04:09:37;;;;;;;36.97;24.45;;;;;;;12.30;100.00;101436.53;5034513;28;20036;-69
2021/11/07 04:12:03;;;;;;;38.92;24.95;;;;;;;12.79;100.00;101518.16;5034447;28;20541;-69
2021/11/07 04:14:38;;;;;;;38.80;24.67;;;;;;;12.45;100.00;101468.28;5034669;28;20026;-71
2021/11/07 04:17:07;;;;;;;38.80;24.48;;;;;;;12.83;100.00;101524.34;5033434;28;20037;-69
2021/11/07 04:19:33;;;;;;;43.57;25.37;;;;;;;12.84;100.00;101523.53;5034593;28;20044;-68
2021/11/07 04:22:03;;;;;;;37.60;25.92;;;;;;;12.70;100.00;101510.84;5034005;28;20455;-73
2021/11/07 04:24:30;;;;;;;36.63;24.52;;;;;;;12.81;100.00;101521.69;5033705;28;20061;-69
2021/11/07 04:26:55;;;;;;;40.70;25.20;;;;;;;12.84;100.00;101521.81;5033793;28;20047;-69
2021/11/07 04:29:21;;;;;;;37.78;23.70;;;;;;;12.81;100.00;101500.06;4983114;28;20510;-69
2021/11/07 04:31:47;;;;;;;39.30;23.58;;;;;;;12.91;100.00;101520.38;5034106;28;20121;-70
2021/11/07 04:34:12;;;;;;;36.55;24.23;;;;;;;12.95;100.00;101537.84;5033442;28;20029;-69
2021/11/07 04:36:38;;;;;;;35.70;24.05;;;;;;;12.77;100.00;101501.63;5033913;28;20030;-69
2021/11/07 04:39:04;;;;;;;32.90;23.20;;;;;;;12.83;100.00;101514.00;5034051;28;20057;-70
2021/11/07 04:41:29;;;;;;;37.55;23.02;;;;;;;12.58;100.00;101471.44;5033921;28;20487;-69
2021/11/07 04:43:55;;;;;;;36.58;23.25;;;;;;;12.98;100.00;101518.97;5015670;28;20041;-69
2021/11/07 04:46:20;;;;;;;34.85;22.25;;;;;;;13.07;100.00;101516.75;5033861;28;20547;-69
2021/11/07 04:48:48;;;;;;;33.80;23.48;;;;;;;12.98;100.00;101522.44;5033793;28;20104;-69
2021/11/07 04:51:14;;;;;;;36.35;23.45;;;;;;;12.59;100.00;101434.34;5033905;28;20025;-69
2021/11/07 04:53:40;;;;;;;43.60;22.88;;;;;;;13.08;100.00;101523.72;5033697;28;20025;-69
2021/11/07 04:56:05;;;;;;;32.63;22.15;;;;;;;13.11;100.00;101521.28;5015254;28;20099;-69
2021/11/07 04:58:31;;;;;;;41.20;23.38;;;;;;;13.16;100.00;101519.78;5033318;28;20030;-69
2021/11/07 05:00:57;;;;;;;39.50;22.70;;;;;;;13.19;100.00;101526.78;5033841;28;20025;-69
2021/11/07 05:03:22;;;;;;;35.92;22.90;;;;;;;13.25;100.00;101530.53;5033382;28;20596;-69
2021/11/07 05:05:48;;;;;;;39.13;22.85;;;;;;;13.33;100.00;101530.84;5033593;28;20160;-69
2021/11/07 05:08:13;;;;;;;36.88;23.10;;;;;;;13.23;100.00;101526.09;5033648;28;20029;-69
2021/11/07 05:10:40;;;;;;;34.75;23.08;;;;;;;13.30;100.00;101532.44;5033541;28;20041;-69
2021/11/07 05:13:08;;;;;;;36.25;23.20;;;;;;;13.14;100.00;101536.09;5032334;28;20395;-69
2021/11/07 05:15:33;;;;;;;35.50;24.70;;;;;;;12.95;100.00;101517.13;5033231;28;20415;-69
2021/11/07 05:18:00;;;;;;;36.65;22.92;;;;;;;13.01;100.00;101534.63;5031917;28;20025;-69
2021/11/07 05:20:25;;;;;;;36.42;23.42;;;;;;;12.92;100.00;101528.25;5033228;28;20626;-69
2021/11/07 05:22:51;;;;;;;33.15;22.42;;;;;;;13.02;100.00;101542.50;5033639;28;20120;-69
2021/11/07 05:25:17;;;;;;;38.35;24.50;;;;;;;13.08;100.00;101544.47;5033474;28;20049;-69
2021/11/07 05:27:43;;;;;;;34.40;23.17;;;;;;;12.88;100.00;101525.44;5033363;28;20044;-69
2021/11/07 05:30:10;;;;;;;33.20;23.60;;;;;;;13.02;100.00;101542.50;5033247;28;20475;-69
2021/11/07 05:32:36;;;;;;;30.17;21.90;;;;;;;13.01;100.00;101557.97;5031783;28;20022;-69
2021/11/07 05:35:03;;;;;;;32.33;20.42;;;;;;;12.94;100.00;101543.84;5032904;28;20037;-69
2021/11/07 05:37:28;;;;;;;34.75;22.80;;;;;;;12.93;100.00;101550.75;5014143;28;20407;-70
2021/11/07 05:39:54;;;;;;;34.45;22.35;;;;;;;12.98;100.00;101550.06;5032953;28;20029;-69
2021/11/07 05:42:21;;;;;;;42.53;23.55;;;;;;;12.95;100.00;101561.19;5033095;28;20390;-69
2021/11/07 05:44:46;;;;;;;34.60;21.38;;;;;;;12.98;100.00;101550.94;5032645;28;20028;-69
2021/11/07 05:47:12;;;;;;;34.92;22.92;;;;;;;12.62;100.00;101494.06;5032810;28;20412;-69
2021/11/07 05:49:37;;;;;;;35.35;22.15;;;;;;;12.99;100.00;101551.84;5032484;28;20025;-69
2021/11/07 05:52:04;;;;;;;35.00;21.98;;;;;;;12.89;100.00;101535.00;5016291;28;20026;-69
2021/11/07 05:54:29;;;;;;;40.85;21.92;;;;;;;13.04;100.00;101550.34;4999680;28;20547;-69
2021/11/07 05:56:55;;;;;;;32.05;21.55;;;;;;;12.94;100.00;101539.53;5003766;28;20109;-69
2021/11/07 05:59:20;;;;;;;36.58;21.90;;;;;;;12.94;100.00;101536.97;5012165;28;20141;-70
2021/11/07 06:01:46;;;;;;;31.48;20.95;;;;;;;13.09;100.00;101560.06;5012129;28;20026;-69
2021/11/07 06:04:11;;;;;;;31.90;21.90;;;;;;;13.02;100.00;101546.78;5012151;28;20405;-69
2021/11/07 06:06:37;;;;;;;34.95;23.10;;;;;;;12.85;100.00;101533.09;5012262;28;20025;-69
2021/11/07 06:09:03;;;;;;;35.85;22.35;;;;;;;13.09;100.00;101580.81;5012496;28;20040;-69
2021/11/07 06:11:29;;;;;;;40.75;22.58;;;;;;;13.07;100.00;101576.38;5012684;28;20034;-69
2021/11/07 06:13:55;;;;;;;35.08;22.38;;;;;;;13.04;100.00;101581.44;5012147;28;20030;-69
2021/11/07 06:16:21;;;;;;;34.53;22.05;;;;;;;12.91;100.00;101570.53;5011969;28;20468;-69
2021/11/07 06:18:48;;;;;;;33.50;23.25;;;;;;;13.07;100.00;101592.84;5012488;28;20026;-69
2021/11/07 06:21:14;;;;;;;36.80;23.10;;;;;;;13.13;100.00;101586.16;5012427;28;20472;-69
2021/11/07 06:23:39;;;;;;;38.45;25.60;;;;;;;13.08;100.00;101592.03;5012141;28;20475;-69
2021/11/07 06:26:06;;;;;;;46.10;26.70;;;;;;;13.03;100.00;101585.72;5023443;28;20059;-69
2021/11/07 06:28:31;;;;;;;36.50;23.58;;;;;;;13.01;100.00;101581.28;5031998;28;20017;-69
2021/11/07 06:31:03;;;;;;;39.13;26.42;;;;;;;12.39;100.00;101493.03;5031691;28;20462;-69
2021/11/07 06:33:28;;;;;;;44.80;27.20;;;;;;;12.63;100.00;101519.16;5032118;28;20021;-70
2021/11/07 06:35:55;;;;;;;77.60;46.85;;;;;;;12.71;100.00;101522.09;5031742;28;20025;-69
2021/11/07 06:38:21;;;;;;;44.58;28.70;;;;;;;13.07;100.00;101573.78;5031817;28;20108;-68
2021/11/07 06:40:46;;;;;;;56.88;39.58;;;;;;;12.92;100.00;101572.31;5031465;28;20051;-69
2021/11/07 06:43:12;;;;;;;45.25;29.33;;;;;;;12.89;100.00;101540.19;5030316;28;20033;-69
2021/11/07 06:45:38;;;;;;;39.45;25.95;;;;;;;13.04;100.00;101571.06;5031258;28;20067;-69
2021/11/07 06:48:04;;;;;;;38.40;27.92;;;;;;;12.90;100.00;101553.19;5030027;28;20021;-69
2021/11/07 06:50:30;;;;;;;39.10;24.23;;;;;;;13.08;100.00;101562.59;5031670;28;20463;-69
2021/11/07 06:52:56;;;;;;;34.17;22.58;;;;;;;12.97;100.00;101551.75;5027967;28;20021;-70
2021/11/07 06:55:22;;;;;;;33.08;23.83;;;;;;;12.70;100.00;101507.38;5030920;28;20021;-68
2021/11/07 06:57:49;;;;;;;40.05;25.73;;;;;;;13.14;100.00;101568.06;5031340;28;20045;-69
2021/11/07 07:00:19;;;;;;;37.60;23.90;;;;;;;13.06;100.00;101553.88;5031371;28;20032;-67
2021/11/07 07:02:44;;;;;;;;;;;;;;;13.22;100.00;101560.63;5031875;28;20108;-69
2021/11/07 07:05:12;;;;;;;34.38;22.77;;;;;;;13.15;100.00;101556.00;5031491;28;20012;-69
2021/11/07 07:07:42;;;;;;;41.58;24.88;;;;;;;13.14;100.00;101549.91;5031574;28;20026;-69
2021/11/07 07:10:10;;;;;;;48.80;28.27;;;;;;;13.10;100.00;101546.31;5030583;28;20034;-69
2021/11/07 07:15:15;;;;;;;36.63;24.77;;;;;;;13.28;100.00;101560.88;5031241;28;20034;-68
2021/11/07 07:21:10;;;;;;;46.63;33.88;;;;;;;13.24;100.00;101553.81;4970491;28;20053;-69
2021/11/07 07:33:45;;;;;;;44.92;26.83;;;;;;;13.29;100.00;101541.03;4970455;28;20118;-70
2021/11/07 07:36:11;;;;;;;43.45;26.77;;;;;;;13.28;100.00;101542.72;4970280;28;20070;-70
2021/11/07 07:38:36;;;;;;;44.38;26.40;;;;;;;13.05;100.00;101502.88;4970329;28;20489;-70
2021/11/07 07:41:02;;;;;;;43.13;28.77;;;;;;;13.21;100.00;101533.81;4970151;28;20035;-70
2021/11/07 07:43:30;;;;;;;43.42;24.73;;;;;;;13.27;100.00;101539.25;4970391;28;20477;-70
2021/11/07 07:45:58;;;;;;;40.15;24.23;;;;;;;13.28;100.00;101542.72;4970164;28;20027;-69
2021/11/07 07:48:24;;;;;;;46.00;29.43;;;;;;;13.22;100.00;101547.66;4970466;28;20043;-70
2021/11/07 07:50:50;;;;;;;55.35;34.70;;;;;;;12.74;100.00;101458.34;4970302;28;20198;-70
2021/11/07 07:53:15;;;;;;;95.50;61.25;;;;;;;12.90;100.00;101461.63;4970768;28;20084;-70
2021/11/07 07:55:41;;;;;;;142.15;76.15;;;;;;;13.37;100.00;101525.03;5025872;28;20065;-70
2021/11/07 07:58:06;;;;;;;50.90;28.13;;;;;;;13.51;100.00;101537.69;5031164;28;20025;-70
2021/11/07 08:00:32;;;;;;;62.22;37.25;;;;;;;13.55;100.00;101539.59;4998586;28;20037;-70
2021/11/07 08:02:57;;;;;;;45.88;30.52;;;;;;;13.50;100.00;101530.72;5034576;28;20670;-70
2021/11/07 08:05:23;;;;;;;37.55;22.77;;;;;;;13.56;100.00;101541.38;5034983;28;20025;-71
2021/11/07 08:07:49;;;;;;;45.50;26.98;;;;;;;13.29;100.00;101474.50;5034764;28;20061;-70
2021/11/07 08:10:16;;;;;;;40.58;23.45;;;;;;;13.41;100.00;101498.38;5034754;28;20033;-69
2021/11/07 08:12:41;;;;;;;36.88;23.95;;;;;;;13.59;100.00;101528.50;5034469;28;20479;-70
2021/11/07 08:15:09;;;;;;;37.80;21.75;;;;;;;13.46;100.00;101508.06;5034406;28;20116;-71
2021/11/07 08:17:35;;;;;;;37.25;23.23;;;;;;;13.47;100.00;101509.84;5012473;28;20030;-71
2021/11/07 08:20:05;;;;;;;45.17;24.38;;;;;;;13.43;100.00;101520.09;4995732;28;20078;-70
2021/11/07 08:22:31;;;;;;;37.28;21.70;;;;;;;13.35;100.00;101531.81;5012052;28;20038;-71
2021/11/07 08:24:58;;;;;;;37.45;23.92;;;;;;;13.23;100.00;101524.41;5012657;28;20041;-70
2021/11/07 08:27:24;;;;;;;39.17;24.67;;;;;;;13.29;100.00;101536.72;5012053;28;20050;-70
2021/11/07 08:29:54;;;;;;;39.65;23.42;;;;;;;13.32;100.00;101530.78;5012189;28;20562;-70
2021/11/07 08:32:19;;;;;;;;;;;;;;;13.18;100.00;101533.66;5012683;28;20113;-70
2021/11/07 08:34:46;;;;;;;40.17;22.35;;;;;;;13.23;100.00;101539.06;5012161;28;20008;-70
2021/11/07 08:37:14;;;;;;;36.92;22.27;;;;;;;13.02;100.00;101521.75;5012330;28;20034;-69
2021/11/07 08:42:30;;;;;;;43.13;23.35;;;;;;;13.24;100.00;101533.06;5011825;28;20044;-70
2021/11/07 09:03:56;;;;;;;35.33;22.55;;;;;;;12.98;100.00;101468.00;5033671;28;20004;-70
2021/11/07 09:08:51;;;;;;;40.38;25.58;;;;;;;13.11;100.00;101485.84;5033483;28;20030;-70
2021/11/07 09:11:21;;;;;;;37.08;24.58;;;;;;;12.72;100.00;101426.31;5032586;28;20466;-69
2021/11/07 09:13:48;;;;;;;37.42;24.17;;;;;;;13.16;100.00;101495.53;5033302;28;20021;-70
2021/11/07 09:16:14;;;;;;;36.88;24.10;;;;;;;13.07;100.00;101483.06;5033455;28;20033;-68
2021/11/07 09:18:41;;;;;;;35.13;24.65;;;;;;;13.19;100.00;101496.53;5033339;28;20037;-69
2021/11/07 09:21:22;;;;;;;32.95;22.60;;;;;;;12.87;100.00;101436.44;5033281;28;20026;-69
2021/11/07 09:23:53;;;;;;;37.08;25.90;;;;;;;13.16;100.00;101478.28;5030812;28;20052;-69
2021/11/07 09:26:29;;;;;;;37.63;26.90;;;;;;;13.15;100.00;101463.53;5030730;28;20455;-69
2021/11/07 09:29:08;;;;;;;42.75;27.63;;;;;;;13.38;100.00;101474.03;5030871;28;20029;-69
2021/11/07 09:31:41;;;;;;;37.00;25.95;;;;;;;13.37;100.00;101469.63;5031038;28;20038;-69
2021/11/07 09:34:17;;;;;;;33.17;23.05;;;;;;;13.21;100.00;101445.66;5030770;28;20439;-69
2021/11/07 09:36:56;;;;;;;34.28;24.35;;;;;;;13.30;100.00;101458.09;5030694;28;20098;-69
2021/11/07 09:39:31;;;;;;;36.45;22.95;;;;;;;13.47;100.00;101471.81;5030703;28;20034;-69
2021/11/07 09:42:27;;;;;;;33.92;22.70;;;;;;;13.39;100.00;101463.69;5030722;28;20049;-70
2021/11/07 09:44:45;;;;;;;39.10;25.08;;;;;;;13.52;100.00;101456.41;5030062;28;20131;-70
2021/11/07 09:47:12;;;;;;;33.63;24.83;;;;;;;13.53;100.00;101453.00;5030312;28;20462;-69
2021/11/07 09:49:48;;;;;;;36.08;24.27;;;;;;;13.57;100.00;101444.53;5030380;28;20038;-70
2021/11/07 09:52:24;;;;;;;41.90;25.67;;;;;;;13.57;100.00;101444.53;5030502;28;20490;-69
2021/11/07 09:54:59;;;;;;;36.17;26.45;;;;;;;13.62;100.00;101431.75;5031535;28;20041;-69
2021/11/07 09:57:29;;;;;;;43.78;27.58;;;;;;;13.62;100.00;101421.34;5032403;28;20034;-69
2021/11/07 09:59:58;;;;;;;38.55;24.15;;;;;;;13.80;100.00;101434.19;5032721;28;20025;-69
2021/11/07 10:02:28;;;;;;;;;;;;;;;13.83;100.00;101427.41;5032948;28;20104;-69
2021/11/07 10:04:58;;;;;;;35.03;23.40;;;;;;;13.49;100.00;101349.97;5032529;28;19913;-69
2021/11/07 10:07:29;;;;;;;38.88;25.10;;;;;;;14.01;100.00;101415.97;5032241;28;20037;-69
2021/11/07 10:09:59;;;;;;;34.45;24.75;;;;;;;13.99;100.00;101410.69;5032124;28;20061;-69
2021/11/07 10:15:05;;;;;;;38.65;25.13;;;;;;;14.07;100.00;101406.69;5025446;28;20041;-71
2021/11/07 10:17:36;;;;;;;36.47;22.88;;;;;;;14.08;100.00;101402.38;5031398;28;20037;-69
2021/11/07 10:20:15;;;;;;;34.42;24.52;;;;;;;14.11;100.00;101406.81;5031455;28;20044;-69
2021/11/07 10:22:41;;;;;;;40.17;27.92;;;;;;;14.19;100.00;101385.50;5029325;28;20092;-69
2021/11/07 10:25:10;;;;;;;35.95;25.58;;;;;;;14.24;100.00;101380.44;5031218;28;20026;-70
2021/11/07 10:27:39;;;;;;;38.22;28.55;;;;;;;13.84;100.00;101298.50;4979982;28;20042;-70
2021/11/07 10:30:12;;;;;;;46.58;33.80;;;;;;;14.21;100.00;101380.34;5009488;28;20033;-70
2021/11/07 10:32:50;;;;;;;43.92;33.90;;;;;;;14.26;100.00;101376.22;4990900;28;20038;-68
2021/11/07 10:38:17;;;;;;;63.65;47.25;;;;;;;14.19;100.00;101332.66;5010766;28;20072;-69
2021/11/07 10:41:00;;;;;;;37.85;28.08;;;;;;;14.16;100.00;101329.97;5010792;28;20033;-69
2021/11/07 10:43:51;;;;;;;41.92;30.58;;;;;;;14.14;100.00;101347.19;5010774;28;20030;-69
2021/11/07 10:46:58;;;;;;;37.50;27.38;;;;;;;13.94;100.00;101326.56;5010123;28;20029;-69
2021/11/07 10:52:25;;;;;;;39.53;27.45;;;;;;;13.95;100.00;101330.94;5007770;28;20080;-67
2021/11/07 10:54:51;;;;;;;30.23;22.75;;;;;;;13.84;100.00;101317.53;5008903;28;20103;-70
2021/11/07 10:57:22;;;;;;;31.88;21.40;;;;;;;13.85;100.00;101326.25;5010885;28;20534;-70
2021/11/07 11:00:10;;;;;;;31.90;24.38;;;;;;;13.88;100.00;101329.84;5008559;28;20048;-71
2021/11/07 11:02:38;;;;;;;38.28;27.15;;;;;;;13.89;100.00;101330.72;5006601;28;20034;-69
2021/11/07 11:05:10;;;;;;;32.10;25.58;;;;;;;13.89;100.00;101309.94;5010284;28;20227;-69
2021/11/07 11:07:58;;;;;;;38.72;27.50;;;;;;;13.98;100.00;101312.91;5011236;28;20018;-69
2021/11/07 11:10:32;;;;;;;32.67;24.75;;;;;;;13.98;100.00;101291.22;5009499;28;20084;-72
2021/11/07 11:13:17;;;;;;;39.70;28.00;;;;;;;14.07;100.00;101288.97;5009791;28;20033;-69
2021/11/07 11:27:36;;;;;;;31.77;22.77;;;;;;;14.43;100.00;101269.41;5005199;28;20163;-70
2021/11/07 11:40:24;;;;;;;24.45;19.60;;;;;;;14.70;100.00;101241.78;4993349;28;20080;-69
2021/11/07 11:45:38;;;;;;;28.10;20.70;;;;;;;14.37;100.00;101252.78;4994537;28;20069;-68
2021/11/07 11:59:10;;;;;;;25.80;19.85;;;;;;;14.33;100.00;101234.44;4975681;28;20035;-68
2021/11/07 12:01:46;;;;;;;26.73;19.33;;;;;;;14.27;100.00;101232.53;4977686;28;20560;-67
2021/11/07 12:04:21;;;;;;;26.05;18.20;;;;;;;14.30;100.00;101229.16;4958721;28;20041;-71
2021/11/07 12:06:50;;;;;;;26.55;19.13;;;;;;;14.23;100.00;101215.97;4972852;28;20085;-73
2021/11/07 12:12:01;;;;;;;28.67;19.45;;;;;;;14.14;100.00;101149.84;4974521;28;20502;-71
2021/11/07 12:14:47;;;;;;;25.52;19.50;;;;;;;14.54;100.00;101211.78;4976174;28;20150;-70
2021/11/07 12:17:13;;;;;;;30.67;22.15;;;;;;;14.52;100.00;101199.59;4974047;28;20170;-67
2021/11/07 12:19:44;;;;;;;29.38;21.35;;;;;;;14.18;100.00;101128.31;4987210;28;20128;-70
2021/11/07 12:22:16;;;;;;;23.10;18.17;;;;;;;14.42;100.00;101169.81;4991654;28;20037;-69
2021/11/07 12:24:47;;;;;;;32.08;20.58;;;;;;;14.66;100.00;101189.66;4990108;28;20113;-69
2021/11/07 12:27:32;;;;;;;34.95;25.02;;;;;;;14.80;100.00;101188.34;4988588;28;20053;-69
2021/11/07 12:30:20;;;;;;;28.48;20.95;;;;;;;14.81;100.00;101181.47;4979016;28;20049;-69
2021/11/07 12:32:49;;;;;;;25.52;19.95;;;;;;;14.67;100.00;101163.72;5004072;28;20045;-69
2021/11/07 12:35:33;;;;;;;27.42;20.63;;;;;;;14.82;100.00;101176.31;5028415;28;20034;-70
2021/11/07 12:41:06;;;;;;;31.25;21.58;;;;;;;14.84;100.00;101172.03;5033481;28;20103;-70
2021/11/07 12:43:39;;;;;;;27.00;20.65;;;;;;;14.86;100.00;101165.16;5014310;28;20038;-69
2021/11/07 12:46:14;;;;;;;28.15;20.83;;;;;;;14.91;100.00;101180.91;5026705;28;20029;-72
2021/11/07 12:48:47;;;;;;;27.67;19.77;;;;;;;14.87;100.00;101168.66;5033408;28;20037;-72
2021/11/07 12:51:29;;;;;;;27.42;21.00;;;;;;;14.37;100.00;101088.28;5015549;28;20037;-72
2021/11/07 12:54:15;;;;;;;27.60;20.48;;;;;;;14.84;100.00;101171.16;5032997;28;20487;-69
2021/11/07 12:56:44;;;;;;;26.40;20.10;;;;;;;14.38;100.00;101098.69;5033029;28;20083;-69
2021/11/07 12:59:16;;;;;;;28.30;19.42;;;;;;;14.80;100.00;101171.91;5033274;28;20030;-70
2021/11/07 13:02:17;;;;;;;23.45;18.77;;;;;;;14.80;100.00;101174.50;5032757;28;20553;-66
2021/11/07 13:14:05;;;;;;;30.50;21.80;;;;;;;14.76;100.00;101154.44;4803094;29;20537;-69
2021/11/07 13:16:55;;;;;;;24.83;18.42;;;;;;;14.76;100.00;101162.25;4803344;29;20054;-68
2021/11/07 13:19:43;;;;;;;26.98;20.95;;;;;;;14.54;100.00;101153.72;4803217;29;20058;-70
2021/11/07 13:22:50;;;;;;;26.75;20.85;;;;;;;14.38;100.00;101135.06;4802705;29;20057;-69
2021/11/07 13:25:31;;;;;;;28.65;21.55;;;;;;;14.49;100.00;101151.00;4802988;29;20079;-72
2021/11/07 13:28:15;;;;;;;28.10;21.35;;;;;;;14.28;100.00;101133.00;4802863;29;20537;-69
2021/11/07 13:30:45;;;;;;;68.15;52.88;;;;;;;14.48;100.00;101146.63;4802795;29;20047;-68
2021/11/07 13:33:22;;;;;;;32.03;22.52;;;;;;;14.56;100.00;101141.69;4802924;29;20041;-69